Time;durP1;ratioP1;P1;durP2;ratioP2;P2;SDS_P1;SDS_P2;PMS_P1;PMS_P2;Temp;Humidity;BMP_temperature;BMP_pressure;BME280_temperature;BME280_humidity;BME280_pressure;Samples;Min_cycle;Max_cycle;Signal;HPM_P1;HPM_P2
2023/08/11 00:01:04;;;;;;;9.70;2.78;;;18.40;99.90;;;;;;5065173;28;20071;-82
2023/08/11 00:03:32;;;;;;;6.25;2.75;;;18.40;99.90;;;;;;5050064;28;20037;-81
2023/08/11 00:05:59;;;;;;;7.03;2.50;;;18.30;99.90;;;;;;5023448;28;20056;-82
2023/08/11 00:08:26;;;;;;;7.85;2.58;;;18.30;99.90;;;;;;5035625;28;20079;-81
2023/08/11 00:10:52;;;;;;;9.00;2.80;;;18.30;99.90;;;;;;5052763;28;20125;-81
2023/08/11 00:13:19;;;;;;;5.75;2.47;;;18.30;99.90;;;;;;5037281;28;20099;-82
2023/08/11 00:15:46;;;;;;;8.63;2.60;;;18.20;99.90;;;;;;5035178;28;20042;-82
2023/08/11 00:18:13;;;;;;;6.55;2.70;;;18.30;99.90;;;;;;5030235;28;20123;-82
2023/08/11 00:20:40;;;;;;;7.43;2.83;;;18.30;99.90;;;;;;5018296;28;20069;-82
2023/08/11 00:23:06;;;;;;;7.47;2.72;;;18.30;99.90;;;;;;5045858;28;20072;-81
2023/08/11 00:25:33;;;;;;;9.00;2.90;;;18.20;99.90;;;;;;5054691;28;20119;-82
2023/08/11 00:28:01;;;;;;;8.60;3.28;;;18.20;99.90;;;;;;5037841;28;20034;-82
2023/08/11 00:30:28;;;;;;;8.02;2.80;;;18.20;99.90;;;;;;5019737;28;20050;-81
2023/08/11 00:32:54;;;;;;;6.65;2.90;;;18.20;99.90;;;;;;5041974;28;20464;-81
2023/08/11 00:35:24;;;;;;;6.20;2.58;;;18.20;99.90;;;;;;5044871;28;20044;-82
2023/08/11 00:37:51;;;;;;;8.00;3.08;;;18.20;99.90;;;;;;5017425;28;20107;-82
2023/08/11 00:40:18;;;;;;;6.20;2.75;;;18.20;99.90;;;;;;5040635;28;20450;-82
2023/08/11 00:42:45;;;;;;;7.88;2.97;;;18.20;99.90;;;;;;5058459;28;20036;-81
2023/08/11 00:45:12;;;;;;;10.50;3.10;;;18.20;99.90;;;;;;5085443;28;20101;-82
2023/08/11 00:50:25;;;;;;;10.55;3.00;;;18.10;99.90;;;;;;5085759;28;20059;-81
2023/08/11 00:52:51;;;;;;;7.82;2.92;;;18.20;99.90;;;;;;5085479;28;20043;-82
2023/08/11 00:55:19;;;;;;;7.38;3.00;;;18.20;99.90;;;;;;5073744;28;20051;-82
2023/08/11 00:57:46;;;;;;;6.38;2.70;;;18.20;99.90;;;;;;5075448;28;20130;-82
2023/08/11 01:00:13;;;;;;;7.28;3.00;;;18.30;99.90;;;;;;5062299;28;20033;-82
2023/08/11 01:02:41;;;;;;;7.47;3.10;;;18.20;99.90;;;;;;5059722;28;20364;-82
2023/08/11 01:05:09;;;;;;;8.77;3.28;;;18.20;99.90;;;;;;5067421;28;20065;-81
2023/08/11 01:07:36;;;;;;;6.45;2.80;;;18.20;99.90;;;;;;5093764;28;20063;-82
2023/08/11 01:10:03;;;;;;;5.55;2.55;;;18.20;99.90;;;;;;5069646;28;20060;-82
2023/08/11 01:12:30;;;;;;;7.70;2.95;;;18.10;99.90;;;;;;5076590;28;20040;-82
2023/08/11 01:14:57;;;;;;;8.68;3.28;;;18.10;99.90;;;;;;5063114;28;20399;-83
2023/08/11 01:17:27;;;;;;;7.18;2.85;;;18.10;99.90;;;;;;5054396;28;20119;-81
2023/08/11 01:19:54;;;;;;;8.23;3.03;;;18.10;99.90;;;;;;5065085;28;20048;-82
2023/08/11 01:22:23;;;;;;;6.95;2.90;;;18.10;99.90;;;;;;5087601;28;20036;-83
2023/08/11 01:24:49;;;;;;;9.40;3.25;;;18.10;99.90;;;;;;5062692;28;20045;-83
2023/08/11 01:27:18;;;;;;;8.68;2.92;;;18.00;99.90;;;;;;5083579;28;20036;-82
2023/08/11 01:29:45;;;;;;;10.73;3.17;;;18.00;99.90;;;;;;5063813;28;20053;-82
2023/08/11 01:32:12;;;;;;;10.85;3.30;;;17.90;99.90;;;;;;5067197;28;20059;-83
2023/08/11 01:34:38;;;;;;;7.03;2.90;;;17.90;99.90;;;;;;5044631;28;20105;-82
2023/08/11 01:37:08;;;;;;;12.65;3.25;;;17.80;99.90;;;;;;5059041;28;20048;-82
2023/08/11 01:39:35;;;;;;;9.13;3.25;;;17.80;99.90;;;;;;5052350;28;20413;-82
2023/08/11 01:42:02;;;;;;;8.77;2.97;;;17.70;99.90;;;;;;5052744;28;20053;-82
2023/08/11 01:44:29;;;;;;;9.48;3.20;;;17.70;99.90;;;;;;5067270;28;20037;-82
2023/08/11 01:49:29;;;;;;;12.02;3.47;;;17.70;99.90;;;;;;5055109;28;20045;-82
2023/08/11 01:51:56;;;;;;;9.15;2.75;;;17.70;99.90;;;;;;5053086;28;20045;-82
2023/08/11 01:54:23;;;;;;;11.43;2.95;;;17.70;99.90;;;;;;5069510;28;20052;-82
2023/08/11 01:56:51;;;;;;;9.88;3.08;;;17.60;99.90;;;;;;5073696;28;20048;-82
2023/08/11 01:59:18;;;;;;;8.60;2.92;;;17.60;99.90;;;;;;5067713;28;20052;-82
2023/08/11 02:01:45;;;;;;;9.23;3.00;;;17.60;99.90;;;;;;5066130;28;20135;-82
2023/08/11 02:04:13;;;;;;;9.10;3.10;;;17.60;99.90;;;;;;5083870;28;20507;-81
2023/08/11 02:06:42;;;;;;;8.55;2.90;;;17.60;99.90;;;;;;5085551;28;20056;-82
2023/08/11 02:09:09;;;;;;;12.68;3.50;;;17.60;99.90;;;;;;5086883;28;20101;-82
2023/08/11 02:11:36;;;;;;;11.65;2.80;;;17.60;99.90;;;;;;5074794;28;20064;-81
2023/08/11 02:14:02;;;;;;;13.35;3.67;;;17.50;99.90;;;;;;5060278;28;20052;-82
2023/08/11 02:19:00;;;;;;;12.23;2.90;;;17.60;99.90;;;;;;5066565;28;20119;-81
2023/08/11 02:21:27;;;;;;;10.57;2.53;;;17.60;99.90;;;;;;5057248;28;20467;-81
2023/08/11 02:23:54;;;;;;;12.57;2.80;;;17.60;99.90;;;;;;5084442;28;20064;-82
2023/08/11 02:26:22;;;;;;;11.13;3.60;;;17.60;99.90;;;;;;5065228;28;20048;-82
2023/08/11 02:28:49;;;;;;;16.13;4.68;;;17.60;99.90;;;;;;5089651;28;20089;-82
2023/08/11 02:31:16;;;;;;;13.52;3.65;;;17.70;99.90;;;;;;5055960;28;20040;-82
2023/08/11 02:33:43;;;;;;;9.88;3.15;;;17.80;99.90;;;;;;5070204;28;20124;-81
2023/08/11 02:36:11;;;;;;;14.50;3.30;;;17.90;99.90;;;;;;5067248;28;20048;-81
2023/08/11 02:38:38;;;;;;;11.13;2.60;;;18.00;99.90;;;;;;5081158;28;20058;-82
2023/08/11 02:41:05;;;;;;;13.68;3.05;;;18.00;99.90;;;;;;5044570;28;20072;-82
2023/08/11 02:43:36;;;;;;;11.60;2.80;;;18.10;99.90;;;;;;5048096;28;20383;-81
2023/08/11 02:46:05;;;;;;;12.82;2.63;;;18.20;99.90;;;;;;5020971;28;20048;-82
2023/08/11 02:48:36;;;;;;;14.70;3.38;;;18.30;99.90;;;;;;5047102;28;20056;-81
2023/08/11 02:51:03;;;;;;;11.88;2.53;;;18.30;99.90;;;;;;5052925;28;20103;-83
2023/08/11 02:53:30;;;;;;;14.27;2.70;;;18.40;99.90;;;;;;5029398;28;20053;-81
2023/08/11 02:55:56;;;;;;;14.27;2.78;;;18.40;99.90;;;;;;5033134;28;20111;-82
2023/08/11 02:58:23;;;;;;;11.30;2.42;;;18.40;99.90;;;;;;5019249;28;20042;-82
2023/08/11 03:00:50;;;;;;;13.25;2.55;;;18.50;99.90;;;;;;5018329;28;20049;-81
2023/08/11 03:03:16;;;;;;;16.50;2.75;;;18.50;99.90;;;;;;5042152;28;20345;-81
2023/08/11 03:05:43;;;;;;;10.82;2.70;;;18.50;99.90;;;;;;5025975;28;20457;-82
2023/08/11 03:08:11;;;;;;;11.57;2.67;;;18.70;99.90;;;;;;5018950;28;20056;-81
2023/08/11 03:10:38;;;;;;;9.82;2.78;;;18.70;99.90;;;;;;5056590;28;20072;-81
2023/08/11 03:13:21;;;;;;;13.90;2.85;;;18.70;99.90;;;;;;5035369;28;20142;-81
2023/08/11 03:15:48;;;;;;;12.82;2.90;;;18.70;99.90;;;;;;5038679;28;20460;-81
2023/08/11 03:18:16;;;;;;;14.63;2.45;;;18.70;99.90;;;;;;5043522;28;20115;-82
2023/08/11 03:20:43;;;;;;;16.02;2.88;;;18.70;99.90;;;;;;5049470;28;20047;-82
2023/08/11 03:23:09;;;;;;;19.20;3.30;;;18.70;99.90;;;;;;5036125;28;20115;-81
2023/08/11 03:25:36;;;;;;;11.82;2.50;;;18.60;99.90;;;;;;5015346;28;20392;-81
2023/08/11 03:28:04;;;;;;;10.70;2.70;;;18.60;99.90;;;;;;5019545;28;20046;-81
2023/08/11 03:30:31;;;;;;;9.32;2.47;;;18.70;99.90;;;;;;5046820;28;20040;-81
2023/08/11 03:32:58;;;;;;;14.95;3.03;;;18.70;99.90;;;;;;5018004;28;20512;-82
2023/08/11 03:35:38;;;;;;;9.95;2.65;;;18.70;99.90;;;;;;5032447;28;20048;-81
2023/08/11 03:40:50;;;;;;;11.95;2.83;;;18.70;99.90;;;;;;5050437;28;20057;-81
2023/08/11 03:43:17;;;;;;;11.60;2.35;;;18.70;99.90;;;;;;5063789;28;20033;-82
2023/08/11 03:45:44;;;;;;;11.45;2.83;;;18.80;99.90;;;;;;5058921;28;20059;-81
2023/08/11 03:51:02;;;;;;;9.20;2.25;;;18.80;99.90;;;;;;5062958;28;20110;-81
2023/08/11 03:53:28;;;;;;;10.77;2.60;;;18.90;99.90;;;;;;5076261;28;20041;-82
2023/08/11 03:55:55;;;;;;;10.95;2.38;;;18.90;99.90;;;;;;5054828;28;20325;-81
2023/08/11 03:58:23;;;;;;;11.23;2.53;;;18.90;99.90;;;;;;5054458;28;20051;-81
2023/08/11 04:00:53;;;;;;;12.07;2.78;;;19.00;99.90;;;;;;5067080;28;20045;-82
2023/08/11 04:03:22;;;;;;;12.32;2.30;;;18.90;99.90;;;;;;5055053;28;20037;-83
2023/08/11 04:05:49;;;;;;;14.05;2.50;;;19.00;99.90;;;;;;5054179;28;20052;-82
2023/08/11 04:08:16;;;;;;;9.40;2.47;;;19.00;99.90;;;;;;5091748;28;20047;-81
2023/08/11 04:10:43;;;;;;;10.15;2.22;;;19.00;99.90;;;;;;5055918;28;20045;-82
2023/08/11 04:13:10;;;;;;;5.95;2.50;;;19.00;99.90;;;;;;5053732;28;20102;-82
2023/08/11 04:15:37;;;;;;;8.75;2.40;;;19.00;99.90;;;;;;5053304;28;20041;-81
2023/08/11 04:18:03;;;;;;;7.38;2.28;;;19.10;99.90;;;;;;5065808;28;20072;-82
2023/08/11 04:20:30;;;;;;;14.35;2.92;;;19.00;99.90;;;;;;5057042;28;20118;-83
2023/08/11 04:22:57;;;;;;;8.95;2.70;;;19.00;99.90;;;;;;5054252;28;20041;-82
2023/08/11 04:25:24;;;;;;;10.43;2.42;;;19.10;99.90;;;;;;5054396;28;20041;-83
2023/08/11 04:27:52;;;;;;;13.15;3.00;;;19.10;99.90;;;;;;5053289;28;20061;-82
2023/08/11 04:30:19;;;;;;;10.82;2.70;;;19.10;99.90;;;;;;5067938;28;20044;-82
2023/08/11 04:32:50;;;;;;;9.80;2.85;;;19.10;99.90;;;;;;5036893;28;20486;-82
2023/08/11 04:35:17;;;;;;;10.75;2.97;;;19.00;99.90;;;;;;5054370;28;20055;-82
2023/08/11 04:37:45;;;;;;;7.63;2.60;;;19.00;99.90;;;;;;5054592;28;20482;-83
2023/08/11 04:40:15;;;;;;;10.43;2.50;;;19.00;99.90;;;;;;5064052;28;20048;-82
2023/08/11 04:42:43;;;;;;;11.93;2.85;;;19.10;99.90;;;;;;5052200;28;20456;-82
2023/08/11 04:45:16;;;;;;;7.10;2.30;;;19.10;99.90;;;;;;5028131;28;20357;-83
2023/08/11 04:47:44;;;;;;;10.02;2.65;;;19.10;99.90;;;;;;5019355;28;20110;-81
2023/08/11 04:50:15;;;;;;;;;;;19.10;99.90;;;;;;5017644;28;20042;-82
2023/08/11 04:52:42;;;;;;;12.02;2.35;;;19.10;99.90;;;;;;5033792;28;19932;-82
2023/08/11 04:55:12;;;;;;;9.32;2.78;;;19.20;99.90;;;;;;5018011;28;20033;-82
2023/08/11 04:57:41;;;;;;;15.23;2.65;;;19.10;99.90;;;;;;5045528;28;20044;-82
2023/08/11 05:00:13;;;;;;;8.68;2.40;;;19.20;99.90;;;;;;5023777;28;20128;-81
2023/08/11 05:02:44;;;;;;;10.57;2.33;;;19.20;99.90;;;;;;5022993;28;20042;-81
2023/08/11 05:05:11;;;;;;;12.35;2.45;;;19.20;99.90;;;;;;5034542;28;20056;-82
2023/08/11 05:07:39;;;;;;;10.05;2.38;;;19.20;99.90;;;;;;4999992;28;20038;-81
2023/08/11 05:10:06;;;;;;;8.77;2.28;;;19.20;99.90;;;;;;5048439;28;20033;-81
2023/08/11 05:12:33;;;;;;;10.48;2.25;;;19.30;99.90;;;;;;5033839;28;20535;-80
2023/08/11 05:14:59;;;;;;;11.43;2.13;;;19.20;99.90;;;;;;5034400;28;20349;-81
2023/08/11 05:17:27;;;;;;;7.32;2.63;;;19.20;99.90;;;;;;5030972;28;20069;-81
2023/08/11 05:19:54;;;;;;;8.20;2.38;;;19.20;99.90;;;;;;5033869;28;20046;-81
2023/08/11 05:22:22;;;;;;;6.82;1.83;;;19.30;99.90;;;;;;5034060;28;20049;-82
2023/08/11 05:24:48;;;;;;;9.30;2.13;;;19.30;99.90;;;;;;5034324;28;20391;-82
2023/08/11 05:30:02;;;;;;;6.18;2.00;;;19.20;99.90;;;;;;5020964;28;20136;-83
2023/08/11 05:32:29;;;;;;;6.28;1.80;;;19.20;99.90;;;;;;5020050;28;20487;-81
2023/08/11 05:34:56;;;;;;;9.35;1.70;;;19.30;99.90;;;;;;5021415;28;20475;-81
2023/08/11 05:40:09;;;;;;;6.20;1.45;;;19.40;99.90;;;;;;5036916;28;20053;-82
2023/08/11 05:42:36;;;;;;;5.53;1.58;;;19.40;99.90;;;;;;5020521;28;20439;-82
2023/08/11 05:45:03;;;;;;;4.20;1.25;;;19.40;99.90;;;;;;5020849;28;20045;-82
2023/08/11 05:47:32;;;;;;;7.07;1.30;;;19.40;99.90;;;;;;5038759;28;20424;-82
2023/08/11 05:49:59;;;;;;;4.35;1.55;;;19.40;99.90;;;;;;5049841;28;20434;-82
2023/08/11 05:52:26;;;;;;;6.18;1.45;;;19.50;99.90;;;;;;5037433;28;20041;-83
2023/08/11 05:54:52;;;;;;;6.22;1.65;;;19.50;99.90;;;;;;5054202;28;20037;-81
2023/08/11 05:57:20;;;;;;;6.10;1.70;;;19.60;99.90;;;;;;5028025;28;20120;-83
2023/08/11 05:59:47;;;;;;;6.97;1.85;;;19.60;99.90;;;;;;5051084;28;20125;-83
2023/08/11 06:02:14;;;;;;;12.50;2.25;;;19.60;99.90;;;;;;5020271;28;20464;-83
2023/08/11 06:04:40;;;;;;;9.23;2.15;;;19.70;99.90;;;;;;5037600;28;20042;-82
2023/08/11 06:07:07;;;;;;;10.02;2.78;;;19.70;99.90;;;;;;5046026;28;20048;-82
2023/08/11 06:09:35;;;;;;;7.68;2.53;;;19.60;99.90;;;;;;5032728;28;20044;-82
2023/08/11 06:12:01;;;;;;;9.07;2.90;;;19.60;99.90;;;;;;5069836;28;20037;-82
2023/08/11 06:14:28;;;;;;;7.68;3.03;;;19.70;99.90;;;;;;5043123;28;20049;-81
2023/08/11 06:16:55;;;;;;;11.23;3.42;;;19.60;99.90;;;;;;5037438;28;20075;-81
2023/08/11 06:19:23;;;;;;;10.38;4.07;;;19.60;99.90;;;;;;5027182;28;20081;-80
2023/08/11 06:21:49;;;;;;;10.88;4.15;;;19.60;99.90;;;;;;5025587;28;20041;-81
2023/08/11 06:24:16;;;;;;;10.77;4.15;;;19.70;99.90;;;;;;5049906;28;20040;-82
2023/08/11 06:26:44;;;;;;;14.15;4.05;;;19.80;99.90;;;;;;5076361;28;20094;-82
2023/08/11 06:29:10;;;;;;;11.85;4.65;;;19.80;99.90;;;;;;5053962;28;20407;-81
2023/08/11 06:31:37;;;;;;;12.38;4.28;;;19.90;99.90;;;;;;5036983;28;20037;-80
2023/08/11 06:34:05;;;;;;;14.30;4.53;;;19.80;99.90;;;;;;5033026;28;20483;-82
2023/08/11 06:36:33;;;;;;;11.35;4.53;;;19.80;99.90;;;;;;5037213;28;20057;-81
2023/08/11 06:38:59;;;;;;;12.98;3.60;;;19.90;99.90;;;;;;5049481;28;20365;-81
2023/08/11 06:41:26;;;;;;;7.75;2.90;;;19.80;99.90;;;;;;5036569;28;20049;-82
2023/08/11 06:43:53;;;;;;;9.48;2.78;;;19.90;99.90;;;;;;5033203;28;20045;-82
2023/08/11 06:46:21;;;;;;;8.10;2.35;;;19.90;99.90;;;;;;5020839;28;20038;-82
2023/08/11 06:48:48;;;;;;;11.43;2.40;;;19.90;99.90;;;;;;5054021;28;20481;-81
2023/08/11 06:51:15;;;;;;;6.10;2.00;;;20.00;99.90;;;;;;5029958;28;20065;-81
2023/08/11 06:53:41;;;;;;;8.55;2.20;;;20.00;99.90;;;;;;5037936;28;20046;-80
2023/08/11 06:56:10;;;;;;;5.85;1.92;;;19.90;99.90;;;;;;5050128;28;20071;-80
2023/08/11 06:58:38;;;;;;;10.80;2.30;;;19.90;99.90;;;;;;5041605;28;20127;-81
2023/08/11 07:01:04;;;;;;;7.93;1.75;;;19.90;99.90;;;;;;5021099;28;20037;-81
2023/08/11 07:03:33;;;;;;;8.38;1.88;;;19.90;99.90;;;;;;5033024;28;20045;-81
2023/08/11 07:06:00;;;;;;;5.05;1.42;;;19.90;99.90;;;;;;5057377;28;20459;-81
2023/08/11 07:08:27;;;;;;;6.25;1.52;;;19.90;99.90;;;;;;5047769;28;20025;-82
2023/08/11 07:10:53;;;;;;;5.35;1.55;;;20.00;99.90;;;;;;5039806;28;20464;-82
2023/08/11 07:13:20;;;;;;;9.32;1.55;;;20.00;99.90;;;;;;5035534;28;20468;-81
2023/08/11 07:15:47;;;;;;;6.68;2.20;;;20.10;99.90;;;;;;5036072;28;20459;-81
2023/08/11 07:18:16;;;;;;;4.32;1.33;;;20.00;99.90;;;;;;5040658;28;20033;-81
2023/08/11 07:20:43;;;;;;;8.88;2.08;;;20.00;99.90;;;;;;5028534;28;20082;-80
2023/08/11 07:23:10;;;;;;;6.78;1.48;;;20.10;99.90;;;;;;5036421;28;20098;-81
2023/08/11 07:25:36;;;;;;;4.15;1.20;;;20.10;99.90;;;;;;5040658;28;20045;-81
2023/08/11 07:28:05;;;;;;;5.13;1.50;;;20.20;99.90;;;;;;5065320;28;20041;-81
2023/08/11 07:30:32;;;;;;;10.48;3.15;;;20.20;99.90;;;;;;5031798;28;20044;-81
2023/08/11 07:33:00;;;;;;;5.38;1.48;;;20.30;99.90;;;;;;5041697;28;20041;-81
2023/08/11 07:35:27;;;;;;;5.13;1.33;;;20.30;99.90;;;;;;5019740;28;20037;-81
2023/08/11 07:37:56;;;;;;;7.15;1.60;;;20.50;99.90;;;;;;5046326;28;20051;-80
2023/08/11 07:40:23;;;;;;;9.63;1.73;;;20.60;99.90;;;;;;5049099;28;20135;-81
2023/08/11 07:42:50;;;;;;;8.00;1.40;;;20.70;99.90;;;;;;5060820;28;20410;-82
2023/08/11 07:45:16;;;;;;;9.00;1.48;;;20.90;99.90;;;;;;5074511;28;20055;-82
2023/08/11 07:47:43;;;;;;;8.60;1.70;;;21.00;99.90;;;;;;5085451;28;20102;-82
2023/08/11 07:50:10;;;;;;;6.57;1.80;;;21.00;99.90;;;;;;5054291;28;20048;-82
2023/08/11 07:52:37;;;;;;;8.48;1.60;;;21.00;99.90;;;;;;5057038;28;20048;-84
2023/08/11 07:55:04;;;;;;;7.45;1.50;;;21.00;99.90;;;;;;5081457;28;20041;-84
2023/08/11 07:57:33;;;;;;;6.18;1.52;;;21.20;99.90;;;;;;5069302;28;20512;-82
2023/08/11 08:00:00;;;;;;;6.35;1.77;;;21.20;99.90;;;;;;5081259;28;20518;-84
2023/08/11 08:02:27;;;;;;;7.63;1.75;;;21.30;99.90;;;;;;5080714;28;20705;-83
2023/08/11 08:04:54;;;;;;;7.97;2.00;;;21.50;99.90;;;;;;5080541;28;20454;-83
2023/08/11 08:07:37;;;;;;;5.47;2.00;;;21.50;99.90;;;;;;5080353;28;20036;-85
2023/08/11 08:10:11;;;;;;;6.75;1.95;;;21.70;99.90;;;;;;5065289;28;20036;-85
2023/08/11 08:12:38;;;;;;;13.02;2.47;;;21.80;99.90;;;;;;5094369;28;20032;-85
2023/08/11 08:15:05;;;;;;;8.00;2.17;;;22.00;99.90;;;;;;5060830;28;20087;-84
2023/08/11 08:17:32;;;;;;;7.47;2.25;;;21.80;99.90;;;;;;5053929;28;20053;-84
2023/08/11 08:20:01;;;;;;;10.02;2.45;;;21.80;99.90;;;;;;5066604;28;20055;-82
2023/08/11 08:22:27;;;;;;;11.23;2.40;;;21.70;99.90;;;;;;5066552;28;20101;-81
2023/08/11 08:24:54;;;;;;;11.15;2.65;;;21.70;99.90;;;;;;5068765;28;20098;-83
2023/08/11 08:27:24;;;;;;;8.07;2.33;;;21.80;99.90;;;;;;5040634;28;20040;-82
2023/08/11 08:29:51;;;;;;;7.85;2.10;;;22.00;99.90;;;;;;5062850;28;20088;-83
2023/08/11 08:32:18;;;;;;;13.55;2.63;;;22.00;99.90;;;;;;5067591;28;20041;-84
2023/08/11 08:34:45;;;;;;;9.02;2.42;;;22.20;99.90;;;;;;5053725;28;20048;-82
2023/08/11 08:39:43;;;;;;;8.57;2.35;;;22.00;99.90;;;;;;5045049;28;20085;-83
2023/08/11 08:42:10;;;;;;;11.05;2.60;;;22.00;99.90;;;;;;5044133;28;20155;-83
2023/08/11 08:44:36;;;;;;;12.88;2.60;;;22.00;99.90;;;;;;5046670;28;20115;-86
2023/08/11 08:47:07;;;;;;;9.95;2.78;;;22.20;99.90;;;;;;5017095;28;20460;-85
2023/08/11 08:49:36;;;;;;;13.35;2.70;;;22.20;99.90;;;;;;5031338;28;20045;-86
2023/08/11 08:52:03;;;;;;;11.30;2.65;;;22.10;99.90;;;;;;5022492;28;20056;-86
2023/08/11 08:54:31;;;;;;;11.32;2.85;;;22.10;99.90;;;;;;5013999;28;20050;-85
2023/08/11 08:56:58;;;;;;;13.82;2.42;;;22.10;99.90;;;;;;5032199;28;20042;-86
2023/08/11 08:59:25;;;;;;;12.63;2.83;;;22.10;99.90;;;;;;5029082;28;20063;-87
2023/08/11 09:01:52;;;;;;;7.57;2.13;;;22.30;99.90;;;;;;5046252;28;20349;-85
2023/08/11 09:04:18;;;;;;;10.77;2.65;;;22.40;99.90;;;;;;5026485;28;20041;-88
2023/08/11 09:06:46;;;;;;;12.82;2.88;;;22.50;99.90;;;;;;5015024;28;20427;-84
2023/08/11 09:09:13;;;;;;;13.52;2.40;;;22.60;99.90;;;;;;5040934;28;20135;-90
2023/08/11 09:11:43;;;;;;;10.87;2.77;;;22.80;99.90;;;;;;5023703;28;20083;-87
2023/08/11 09:14:10;;;;;;;15.10;2.75;;;23.00;99.90;;;;;;5045982;28;20038;-83
2023/08/11 09:19:27;;;;;;;8.95;2.55;;;23.30;99.90;;;;;;5033009;28;20044;-88
2023/08/11 09:21:54;;;;;;;10.35;2.63;;;23.20;99.90;;;;;;5057707;28;20049;-86
2023/08/11 09:24:23;;;;;;;13.32;2.58;;;23.20;99.90;;;;;;5030682;28;20450;-89
2023/08/11 09:26:51;;;;;;;10.95;3.08;;;23.00;99.90;;;;;;5042880;28;20488;-87
2023/08/11 09:29:18;;;;;;;11.30;2.50;;;23.00;99.90;;;;;;5041095;28;20045;-86
2023/08/11 09:31:45;;;;;;;10.48;2.83;;;23.00;99.90;;;;;;5024605;28;20052;-84
2023/08/11 09:34:12;;;;;;;14.10;3.03;;;23.20;99.90;;;;;;5016420;28;20124;-86
2023/08/11 09:36:42;;;;;;;10.98;2.85;;;23.40;99.90;;;;;;5026887;28;20114;-84
2023/08/11 09:39:09;;;;;;;9.48;2.90;;;23.50;99.90;;;;;;5027740;28;20060;-87
2023/08/11 09:41:36;;;;;;;8.68;2.63;;;23.60;99.90;;;;;;5065783;28;20049;-85
2023/08/11 09:44:03;;;;;;;11.20;3.08;;;23.70;99.90;;;;;;5068341;28;20102;-86
2023/08/11 09:46:30;;;;;;;10.35;3.20;;;23.90;99.90;;;;;;5053132;28;20041;-87
2023/08/11 09:48:58;;;;;;;6.38;2.33;;;24.10;99.90;;;;;;5054798;28;20056;-87
2023/08/11 09:51:25;;;;;;;10.68;3.53;;;24.30;99.90;;;;;;5079579;28;20109;-91
2023/08/11 09:53:52;;;;;;;9.77;3.15;;;24.20;99.90;;;;;;5082323;28;20037;-89
2023/08/11 09:56:20;;;;;;;12.27;3.88;;;24.20;99.90;;;;;;5074226;28;20043;-86
2023/08/11 09:58:47;;;;;;;9.40;3.38;;;24.20;99.90;;;;;;5073660;28;20072;-88
2023/08/11 10:01:13;;;;;;;8.65;3.08;;;24.20;99.90;;;;;;5056003;28;20044;-89
2023/08/11 10:03:47;;;;;;;9.77;3.00;;;24.10;99.90;;;;;;5064093;28;20052;-86
2023/08/11 10:09:01;;;;;;;11.63;3.20;;;24.10;99.90;;;;;;5085371;28;20044;-87
2023/08/11 10:11:27;;;;;;;9.27;2.50;;;24.40;99.90;;;;;;5059657;28;20464;-88
2023/08/11 10:13:54;;;;;;;15.00;3.15;;;24.20;99.90;;;;;;5052634;28;20456;-87
2023/08/11 10:16:22;;;;;;;8.48;3.03;;;24.20;99.90;;;;;;5068712;28;20514;-88
2023/08/11 10:18:51;;;;;;;9.93;2.50;;;24.30;99.90;;;;;;5066788;28;20064;-88
2023/08/11 10:21:17;;;;;;;8.93;2.67;;;24.40;99.90;;;;;;5096120;28;20459;-88
2023/08/11 10:23:44;;;;;;;11.45;3.00;;;24.60;99.90;;;;;;5064857;28;20487;-87
2023/08/11 10:26:13;;;;;;;8.73;2.65;;;24.60;99.90;;;;;;5056099;28;20045;-86
2023/08/11 10:28:40;;;;;;;11.80;3.33;;;24.60;99.90;;;;;;5086298;28;20093;-88
2023/08/11 10:31:07;;;;;;;11.27;3.47;;;24.60;99.90;;;;;;5067084;28;20044;-86
2023/08/11 10:33:34;;;;;;;9.63;3.10;;;25.00;99.90;;;;;;5063557;28;20403;-89
2023/08/11 10:36:00;;;;;;;13.75;3.65;;;25.20;99.90;;;;;;5091055;28;20048;-86
2023/08/11 10:38:27;;;;;;;9.90;2.80;;;25.20;99.90;;;;;;5066187;28;20045;-88
2023/08/11 10:40:54;;;;;;;10.05;2.90;;;25.60;99.90;;;;;;5037950;28;20083;-88
2023/08/11 10:43:21;;;;;;;8.73;2.70;;;25.80;99.90;;;;;;5007710;28;20040;-86
2023/08/11 10:45:48;;;;;;;11.60;2.63;;;26.00;99.90;;;;;;5039944;28;20045;-87
2023/08/11 10:48:16;;;;;;;8.88;2.50;;;26.40;99.90;;;;;;5022320;28;20171;-87
2023/08/11 10:50:43;;;;;;;8.48;2.42;;;27.00;99.90;;;;;;5025228;28;20045;-88
2023/08/11 10:53:09;;;;;;;7.80;2.42;;;27.20;99.90;;;;;;5031323;28;20040;-87
2023/08/11 10:55:36;;;;;;;11.70;2.53;;;26.90;99.90;;;;;;5052189;28;20068;-86
2023/08/11 10:58:05;;;;;;;9.63;2.58;;;26.70;99.90;;;;;;5033160;28;20037;-88
2023/08/11 11:00:32;;;;;;;8.13;2.63;;;26.80;99.90;;;;;;5018699;28;20057;-88
2023/08/11 11:03:01;;;;;;;10.93;2.50;;;27.10;99.90;;;;;;5020032;28;20073;-87
2023/08/11 11:05:29;;;;;;;7.65;2.50;;;27.10;99.90;;;;;;5036305;28;20041;-88
2023/08/11 11:07:56;;;;;;;9.52;2.50;;;26.90;99.90;;;;;;5051664;28;20040;-89
2023/08/11 11:10:23;;;;;;;6.75;2.33;;;26.70;99.90;;;;;;5018982;28;20044;-86
2023/08/11 11:12:51;;;;;;;9.23;2.55;;;26.40;99.90;;;;;;5016242;28;20044;-86
2023/08/11 11:15:18;;;;;;;9.93;2.67;;;26.20;99.90;;;;;;5042338;28;20115;-86
2023/08/11 11:17:47;;;;;;;8.40;2.30;;;26.40;99.90;;;;;;5064672;28;20127;-86
2023/08/11 11:20:14;;;;;;;9.75;2.63;;;26.50;99.90;;;;;;5041463;28;20133;-87
2023/08/11 11:22:44;;;;;;;8.82;2.40;;;26.70;99.90;;;;;;5026256;28;20041;-86
2023/08/11 11:25:12;;;;;;;7.38;2.45;;;26.70;99.90;;;;;;5024890;28;20046;-88
2023/08/11 11:27:42;;;;;;;8.40;2.80;;;26.70;99.90;;;;;;5041192;28;20102;-88
2023/08/11 11:30:09;;;;;;;11.03;2.60;;;26.80;99.90;;;;;;5025447;28;20095;-86
2023/08/11 11:32:36;;;;;;;8.63;2.55;;;26.60;99.90;;;;;;5051213;28;20047;-88
2023/08/11 11:35:03;;;;;;;6.95;2.28;;;26.60;99.90;;;;;;5027112;28;20072;-88
2023/08/11 11:40:36;;;;;;;10.02;2.50;;;26.60;99.90;;;;;;5046022;28;20037;-88
2023/08/11 11:43:03;;;;;;;8.73;2.10;;;26.40;99.90;;;;;;5068959;28;20098;-87
2023/08/11 11:45:30;;;;;;;6.43;2.28;;;26.20;99.90;;;;;;5094158;28;20044;-86
2023/08/11 11:47:58;;;;;;;8.35;2.30;;;25.90;99.90;;;;;;5081162;28;20473;-86
2023/08/11 11:50:26;;;;;;;8.48;2.25;;;25.80;99.90;;;;;;5077651;28;20102;-85
2023/08/11 11:52:53;;;;;;;8.27;2.35;;;26.10;99.90;;;;;;5082266;28;20041;-87
2023/08/11 11:55:20;;;;;;;7.35;2.15;;;26.20;99.90;;;;;;5074733;28;20181;-87
2023/08/11 11:57:48;;;;;;;14.75;3.38;;;26.50;99.90;;;;;;5076156;28;20447;-87
2023/08/11 12:00:18;;;;;;;7.45;2.20;;;27.10;99.90;;;;;;5061971;28;20045;-87
2023/08/11 12:02:45;;;;;;;8.40;2.33;;;27.50;99.90;;;;;;5090682;28;20074;-87
2023/08/11 12:05:15;;;;;;;8.35;2.10;;;27.50;99.90;;;;;;5087039;28;20075;-87
2023/08/11 12:10:28;;;;;;;8.43;2.38;;;27.10;99.90;;;;;;5054583;28;20056;-87
2023/08/11 12:12:55;;;;;;;7.18;2.00;;;27.20;99.90;;;;;;5069592;28;20052;-88
2023/08/11 12:15:21;;;;;;;9.80;2.22;;;27.30;99.90;;;;;;5075115;28;20050;-87
2023/08/11 12:17:49;;;;;;;5.63;1.88;;;27.70;99.90;;;;;;5079425;28;20056;-87
2023/08/11 12:20:17;;;;;;;9.73;2.17;;;27.80;99.90;;;;;;5057389;28;20085;-86
2023/08/11 12:22:43;;;;;;;8.80;2.42;;;27.70;99.90;;;;;;5057545;28;20363;-86
2023/08/11 12:25:10;;;;;;;6.68;2.03;;;28.00;99.90;;;;;;5077223;28;20055;-87
2023/08/11 12:30:43;;;;;;;10.15;2.40;;;27.50;99.90;;;;;;5060748;28;20431;-88
2023/08/11 12:33:10;;;;;;;8.95;2.33;;;27.20;99.90;;;;;;5063617;28;20044;-87
2023/08/11 12:35:36;;;;;;;6.93;2.20;;;26.70;99.90;;;;;;5071676;28;20052;-86
2023/08/11 12:40:49;;;;;;;8.77;2.25;;;26.10;99.90;;;;;;5056414;28;20506;-86
2023/08/11 12:43:16;;;;;;;8.30;2.30;;;26.00;99.90;;;;;;5063639;28;20048;-87
2023/08/11 12:45:44;;;;;;;7.28;2.00;;;26.00;99.90;;;;;;5058226;28;20041;-87
2023/08/11 12:50:41;;;;;;;6.05;1.85;;;25.90;99.90;;;;;;5080352;28;20090;-86
2023/08/11 12:53:08;;;;;;;7.88;2.20;;;25.90;99.90;;;;;;5054474;28;20111;-87
2023/08/11 12:55:34;;;;;;;8.30;1.98;;;25.90;99.90;;;;;;5066008;28;20048;-87
2023/08/11 13:00:48;;;;;;;6.63;1.80;;;25.70;99.90;;;;;;5052961;28;20471;-87
2023/08/11 13:03:15;;;;;;;7.55;2.28;;;25.50;99.90;;;;;;5062084;28;20395;-87
2023/08/11 13:05:42;;;;;;;7.22;2.08;;;25.60;99.90;;;;;;5053527;28;20037;-86
2023/08/11 13:11:15;;;;;;;6.45;1.85;;;25.50;99.90;;;;;;5082278;28;20467;-86
2023/08/11 13:13:42;;;;;;;6.10;1.70;;;25.10;99.90;;;;;;5064225;28;20044;-87
2023/08/11 13:16:10;;;;;;;6.85;2.30;;;25.00;99.90;;;;;;5083143;28;20101;-87
2023/08/11 13:18:37;;;;;;;7.88;2.08;;;25.00;99.90;;;;;;5063052;28;20051;-84
2023/08/11 13:21:04;;;;;;;10.25;2.60;;;25.10;99.90;;;;;;5081066;28;20467;-91
2023/08/11 13:23:32;;;;;;;7.35;1.65;;;25.10;99.90;;;;;;5059850;28;20467;-88
2023/08/11 13:25:58;;;;;;;7.65;2.13;;;25.10;99.90;;;;;;5066722;28;20135;-89
2023/08/11 13:28:26;;;;;;;8.85;1.83;;;25.00;99.90;;;;;;5069988;28;20052;-90
2023/08/11 13:30:53;;;;;;;9.00;2.85;;;24.90;99.90;;;;;;5054317;28;20136;-87